sensor_id;sensor_type;location;lat;lon;timestamp;P1;durP1;ratioP1;P2;durP2;ratioP2
22826;SDS011;11580;52.562;13.418;2023-05-07T00:00:18;10.60;;;9.80;;
22826;SDS011;11580;52.562;13.418;2023-05-07T00:02:45;10.70;;;9.80;;
22826;SDS011;11580;52.562;13.418;2023-05-07T00:05:12;11.63;;;10.70;;
22826;SDS011;11580;52.562;13.418;2023-05-07T00:07:40;9.83;;;9.03;;
22826;SDS011;11580;52.562;13.418;2023-05-07T00:10:09;10.53;;;9.73;;
22826;SDS011;11580;52.562;13.418;2023-05-07T00:12:37;11.27;;;10.50;;
22826;SDS011;11580;52.562;13.418;2023-05-07T00:15:05;11.57;;;10.73;;
22826;SDS011;11580;52.562;13.418;2023-05-07T00:17:34;10.30;;;9.60;;
22826;SDS011;11580;52.562;13.418;2023-05-07T00:20:01;11.43;;;10.43;;
22826;SDS011;11580;52.562;13.418;2023-05-07T00:22:30;10.40;;;9.70;;
22826;SDS011;11580;52.562;13.418;2023-05-07T00:24:57;10.90;;;10.00;;
22826;SDS011;11580;52.562;13.418;2023-05-07T00:27:26;10.33;;;9.50;;
22826;SDS011;11580;52.562;13.418;2023-05-07T00:29:53;10.77;;;9.97;;
22826;SDS011;11580;52.562;13.418;2023-05-07T00:32:21;10.53;;;9.73;;
22826;SDS011;11580;52.562;13.418;2023-05-07T00:34:48;9.93;;;9.03;;
22826;SDS011;11580;52.562;13.418;2023-05-07T00:37:16;10.77;;;9.77;;
22826;SDS011;11580;52.562;13.418;2023-05-07T00:39:43;9.70;;;8.93;;
22826;SDS011;11580;52.562;13.418;2023-05-07T00:42:10;10.17;;;9.47;;
22826;SDS011;11580;52.562;13.418;2023-05-07T00:44:39;10.53;;;9.73;;
22826;SDS011;11580;52.562;13.418;2023-05-07T00:47:06;10.20;;;9.50;;
22826;SDS011;11580;52.562;13.418;2023-05-07T00:49:35;10.00;;;9.30;;
22826;SDS011;11580;52.562;13.418;2023-05-07T00:52:06;11.20;;;10.27;;
22826;SDS011;11580;52.562;13.418;2023-05-07T00:54:37;10.80;;;9.90;;
22826;SDS011;11580;52.562;13.418;2023-05-07T00:57:06;10.50;;;9.70;;
22826;SDS011;11580;52.562;13.418;2023-05-07T00:59:36;10.73;;;9.93;;
22826;SDS011;11580;52.562;13.418;2023-05-07T01:02:05;11.67;;;10.70;;
22826;SDS011;11580;52.562;13.418;2023-05-07T01:04:33;10.80;;;9.90;;
22826;SDS011;11580;52.562;13.418;2023-05-07T01:07:00;10.57;;;9.77;;
22826;SDS011;11580;52.562;13.418;2023-05-07T01:09:28;10.70;;;9.90;;
22826;SDS011;11580;52.562;13.418;2023-05-07T01:11:56;10.93;;;10.03;;
22826;SDS011;11580;52.562;13.418;2023-05-07T01:14:25;10.53;;;9.63;;
22826;SDS011;11580;52.562;13.418;2023-05-07T01:16:53;11.30;;;10.50;;
22826;SDS011;11580;52.562;13.418;2023-05-07T01:19:23;10.10;;;9.30;;
22826;SDS011;11580;52.562;13.418;2023-05-07T01:21:51;11.30;;;10.40;;
22826;SDS011;11580;52.562;13.418;2023-05-07T01:24:29;10.70;;;9.80;;
22826;SDS011;11580;52.562;13.418;2023-05-07T01:26:58;10.30;;;9.50;;
22826;SDS011;11580;52.562;13.418;2023-05-07T01:29:29;10.10;;;9.30;;
22826;SDS011;11580;52.562;13.418;2023-05-07T01:31:57;12.00;;;11.00;;
22826;SDS011;11580;52.562;13.418;2023-05-07T01:34:28;11.10;;;10.00;;
22826;SDS011;11580;52.562;13.418;2023-05-07T01:36:59;9.97;;;9.17;;
22826;SDS011;11580;52.562;13.418;2023-05-07T01:39:30;10.87;;;9.93;;
22826;SDS011;11580;52.562;13.418;2023-05-07T01:41:59;10.87;;;10.07;;
22826;SDS011;11580;52.562;13.418;2023-05-07T01:44:26;10.50;;;9.70;;
22826;SDS011;11580;52.562;13.418;2023-05-07T01:46:55;9.50;;;8.80;;
22826;SDS011;11580;52.562;13.418;2023-05-07T01:49:23;11.00;;;10.00;;
22826;SDS011;11580;52.562;13.418;2023-05-07T01:51:51;9.00;;;8.40;;
22826;SDS011;11580;52.562;13.418;2023-05-07T01:54:18;10.30;;;9.50;;
22826;SDS011;11580;52.562;13.418;2023-05-07T01:56:54;9.63;;;9.03;;
22826;SDS011;11580;52.562;13.418;2023-05-07T01:59:23;10.33;;;9.50;;
22826;SDS011;11580;52.562;13.418;2023-05-07T02:01:50;11.30;;;10.30;;
22826;SDS011;11580;52.562;13.418;2023-05-07T02:04:18;11.30;;;10.43;;
22826;SDS011;11580;52.562;13.418;2023-05-07T02:06:45;11.40;;;10.40;;
22826;SDS011;11580;52.562;13.418;2023-05-07T02:09:13;10.33;;;9.63;;
22826;SDS011;11580;52.562;13.418;2023-05-07T02:11:44;9.57;;;8.77;;
22826;SDS011;11580;52.562;13.418;2023-05-07T02:14:13;10.30;;;9.40;;
22826;SDS011;11580;52.562;13.418;2023-05-07T02:16:41;10.43;;;9.50;;
22826;SDS011;11580;52.562;13.418;2023-05-07T02:19:10;10.60;;;9.70;;
22826;SDS011;11580;52.562;13.418;2023-05-07T02:21:37;10.70;;;9.80;;
22826;SDS011;11580;52.562;13.418;2023-05-07T02:24:05;10.50;;;9.70;;
22826;SDS011;11580;52.562;13.418;2023-05-07T02:26:32;10.17;;;9.37;;
22826;SDS011;11580;52.562;13.418;2023-05-07T02:29:00;10.63;;;9.73;;
22826;SDS011;11580;52.562;13.418;2023-05-07T02:31:29;10.17;;;9.27;;
22826;SDS011;11580;52.562;13.418;2023-05-07T02:33:56;10.27;;;9.47;;
22826;SDS011;11580;52.562;13.418;2023-05-07T02:36:23;10.20;;;9.30;;
22826;SDS011;11580;52.562;13.418;2023-05-07T02:38:58;11.17;;;10.13;;
22826;SDS011;11580;52.562;13.418;2023-05-07T02:41:26;9.83;;;8.93;;
22826;SDS011;11580;52.562;13.418;2023-05-07T02:43:53;10.70;;;9.50;;
22826;SDS011;11580;52.562;13.418;2023-05-07T02:46:21;10.00;;;9.20;;
22826;SDS011;11580;52.562;13.418;2023-05-07T02:48:57;10.00;;;9.10;;
22826;SDS011;11580;52.562;13.418;2023-05-07T02:51:25;9.50;;;8.80;;
22826;SDS011;11580;52.562;13.418;2023-05-07T02:53:55;9.97;;;9.27;;
22826;SDS011;11580;52.562;13.418;2023-05-07T02:56:25;10.73;;;9.83;;
22826;SDS011;11580;52.562;13.418;2023-05-07T02:58:53;8.93;;;8.23;;
22826;SDS011;11580;52.562;13.418;2023-05-07T03:01:23;10.00;;;9.20;;
22826;SDS011;11580;52.562;13.418;2023-05-07T03:04:17;8.73;;;8.03;;
22826;SDS011;11580;52.562;13.418;2023-05-07T03:06:45;9.37;;;8.57;;
22826;SDS011;11580;52.562;13.418;2023-05-07T03:09:12;9.13;;;8.40;;
22826;SDS011;11580;52.562;13.418;2023-05-07T03:11:40;9.00;;;8.30;;
22826;SDS011;11580;52.562;13.418;2023-05-07T03:14:07;9.00;;;8.40;;
22826;SDS011;11580;52.562;13.418;2023-05-07T03:16:34;8.73;;;7.97;;
22826;SDS011;11580;52.562;13.418;2023-05-07T03:19:02;9.03;;;8.30;;
22826;SDS011;11580;52.562;13.418;2023-05-07T03:21:30;9.07;;;8.47;;
22826;SDS011;11580;52.562;13.418;2023-05-07T03:23:59;8.87;;;8.07;;
22826;SDS011;11580;52.562;13.418;2023-05-07T03:26:26;8.93;;;8.13;;
22826;SDS011;11580;52.562;13.418;2023-05-07T03:28:54;8.53;;;7.93;;
22826;SDS011;11580;52.562;13.418;2023-05-07T03:31:21;8.90;;;8.30;;
22826;SDS011;11580;52.562;13.418;2023-05-07T03:33:49;9.60;;;7.90;;
22826;SDS011;11580;52.562;13.418;2023-05-07T03:36:18;8.00;;;7.40;;
22826;SDS011;11580;52.562;13.418;2023-05-07T03:38:47;8.10;;;7.50;;
22826;SDS011;11580;52.562;13.418;2023-05-07T03:41:19;9.20;;;8.40;;
22826;SDS011;11580;52.562;13.418;2023-05-07T03:43:46;9.50;;;8.70;;
22826;SDS011;11580;52.562;13.418;2023-05-07T03:46:14;9.03;;;8.33;;
22826;SDS011;11580;52.562;13.418;2023-05-07T03:48:41;9.17;;;8.37;;
22826;SDS011;11580;52.562;13.418;2023-05-07T03:51:11;9.30;;;8.50;;
22826;SDS011;11580;52.562;13.418;2023-05-07T03:53:38;8.50;;;7.80;;
22826;SDS011;11580;52.562;13.418;2023-05-07T03:56:07;8.77;;;8.17;;
22826;SDS011;11580;52.562;13.418;2023-05-07T03:58:37;8.77;;;7.97;;
22826;SDS011;11580;52.562;13.418;2023-05-07T04:01:07;8.40;;;7.80;;
22826;SDS011;11580;52.562;13.418;2023-05-07T04:03:35;9.07;;;8.37;;
22826;SDS011;11580;52.562;13.418;2023-05-07T04:06:02;8.33;;;7.63;;
22826;SDS011;11580;52.562;13.418;2023-05-07T04:08:33;9.83;;;8.97;;
22826;SDS011;11580;52.562;13.418;2023-05-07T04:11:02;8.40;;;7.73;;
22826;SDS011;11580;52.562;13.418;2023-05-07T04:13:32;8.40;;;7.80;;
22826;SDS011;11580;52.562;13.418;2023-05-07T04:16:02;8.03;;;7.40;;
22826;SDS011;11580;52.562;13.418;2023-05-07T04:18:33;8.27;;;7.47;;
22826;SDS011;11580;52.562;13.418;2023-05-07T04:21:01;8.33;;;7.63;;
22826;SDS011;11580;52.562;13.418;2023-05-07T04:23:28;8.33;;;7.63;;
22826;SDS011;11580;52.562;13.418;2023-05-07T04:25:57;8.57;;;7.87;;
22826;SDS011;11580;52.562;13.418;2023-05-07T04:28:33;8.73;;;8.03;;
22826;SDS011;11580;52.562;13.418;2023-05-07T04:31:01;8.00;;;7.30;;
22826;SDS011;11580;52.562;13.418;2023-05-07T04:33:30;7.80;;;7.20;;
22826;SDS011;11580;52.562;13.418;2023-05-07T04:35:57;8.73;;;8.07;;
22826;SDS011;11580;52.562;13.418;2023-05-07T04:38:28;8.27;;;7.53;;
22826;SDS011;11580;52.562;13.418;2023-05-07T04:40:58;8.60;;;8.00;;
22826;SDS011;11580;52.562;13.418;2023-05-07T04:43:31;9.80;;;9.00;;
22826;SDS011;11580;52.562;13.418;2023-05-07T04:46:00;9.20;;;8.40;;
22826;SDS011;11580;52.562;13.418;2023-05-07T04:48:28;8.27;;;7.57;;
22826;SDS011;11580;52.562;13.418;2023-05-07T04:50:57;8.37;;;7.77;;
22826;SDS011;11580;52.562;13.418;2023-05-07T04:53:24;8.20;;;7.50;;
22826;SDS011;11580;52.562;13.418;2023-05-07T04:55:56;8.50;;;7.80;;
22826;SDS011;11580;52.562;13.418;2023-05-07T04:58:29;7.50;;;6.97;;
22826;SDS011;11580;52.562;13.418;2023-05-07T05:00:58;7.80;;;7.10;;
22826;SDS011;11580;52.562;13.418;2023-05-07T05:03:26;7.27;;;6.70;;
22826;SDS011;11580;52.562;13.418;2023-05-07T05:05:55;7.50;;;6.90;;
22826;SDS011;11580;52.562;13.418;2023-05-07T05:08:25;7.63;;;7.03;;
22826;SDS011;11580;52.562;13.418;2023-05-07T05:10:53;7.53;;;6.93;;
22826;SDS011;11580;52.562;13.418;2023-05-07T05:13:20;7.53;;;7.00;;
22826;SDS011;11580;52.562;13.418;2023-05-07T05:15:47;7.97;;;7.37;;
22826;SDS011;11580;52.562;13.418;2023-05-07T05:18:16;7.67;;;6.97;;
22826;SDS011;11580;52.562;13.418;2023-05-07T05:20:43;7.87;;;7.30;;
22826;SDS011;11580;52.562;13.418;2023-05-07T05:23:11;7.70;;;7.10;;
22826;SDS011;11580;52.562;13.418;2023-05-07T05:25:38;7.13;;;6.53;;
22826;SDS011;11580;52.562;13.418;2023-05-07T05:28:08;8.20;;;7.47;;
22826;SDS011;11580;52.562;13.418;2023-05-07T05:30:36;7.53;;;7.03;;
22826;SDS011;11580;52.562;13.418;2023-05-07T05:33:03;8.17;;;7.47;;
22826;SDS011;11580;52.562;13.418;2023-05-07T05:35:31;7.70;;;7.10;;
22826;SDS011;11580;52.562;13.418;2023-05-07T05:38:03;7.40;;;6.73;;
22826;SDS011;11580;52.562;13.418;2023-05-07T05:40:30;7.87;;;7.27;;
22826;SDS011;11580;52.562;13.418;2023-05-07T05:42:58;8.40;;;7.80;;
22826;SDS011;11580;52.562;13.418;2023-05-07T05:45:26;8.10;;;7.33;;
22826;SDS011;11580;52.562;13.418;2023-05-07T05:47:55;9.00;;;8.30;;
22826;SDS011;11580;52.562;13.418;2023-05-07T05:50:23;7.80;;;7.13;;
22826;SDS011;11580;52.562;13.418;2023-05-07T05:52:53;8.07;;;7.53;;
22826;SDS011;11580;52.562;13.418;2023-05-07T05:55:21;7.10;;;6.60;;
22826;SDS011;11580;52.562;13.418;2023-05-07T05:57:48;7.93;;;7.33;;
22826;SDS011;11580;52.562;13.418;2023-05-07T06:00:16;8.97;;;8.37;;
22826;SDS011;11580;52.562;13.418;2023-05-07T06:02:44;8.60;;;7.80;;
22826;SDS011;11580;52.562;13.418;2023-05-07T06:05:15;8.13;;;7.47;;
22826;SDS011;11580;52.562;13.418;2023-05-07T06:07:44;7.27;;;6.77;;
22826;SDS011;11580;52.562;13.418;2023-05-07T06:10:12;7.97;;;7.37;;
22826;SDS011;11580;52.562;13.418;2023-05-07T06:12:40;8.03;;;7.40;;
22826;SDS011;11580;52.562;13.418;2023-05-07T06:15:07;7.60;;;7.00;;
22826;SDS011;11580;52.562;13.418;2023-05-07T06:17:35;8.10;;;7.50;;
22826;SDS011;11580;52.562;13.418;2023-05-07T06:20:02;7.67;;;6.87;;
22826;SDS011;11580;52.562;13.418;2023-05-07T06:22:32;7.23;;;6.63;;
22826;SDS011;11580;52.562;13.418;2023-05-07T06:24:59;6.63;;;6.23;;
22826;SDS011;11580;52.562;13.418;2023-05-07T06:27:29;8.47;;;7.87;;
22826;SDS011;11580;52.562;13.418;2023-05-07T06:29:57;7.27;;;6.73;;
22826;SDS011;11580;52.562;13.418;2023-05-07T06:32:24;6.33;;;5.93;;
22826;SDS011;11580;52.562;13.418;2023-05-07T06:34:51;7.00;;;6.40;;
22826;SDS011;11580;52.562;13.418;2023-05-07T06:37:18;7.53;;;6.93;;
22826;SDS011;11580;52.562;13.418;2023-05-07T06:39:55;6.77;;;6.37;;
22826;SDS011;11580;52.562;13.418;2023-05-07T06:42:23;6.80;;;6.30;;
22826;SDS011;11580;52.562;13.418;2023-05-07T06:44:57;6.87;;;6.30;;
22826;SDS011;11580;52.562;13.418;2023-05-07T06:47:25;7.10;;;6.60;;
22826;SDS011;11580;52.562;13.418;2023-05-07T06:49:54;8.20;;;7.60;;
22826;SDS011;11580;52.562;13.418;2023-05-07T06:52:24;7.07;;;6.57;;
22826;SDS011;11580;52.562;13.418;2023-05-07T06:54:52;7.00;;;6.47;;
22826;SDS011;11580;52.562;13.418;2023-05-07T06:57:22;7.30;;;6.70;;
22826;SDS011;11580;52.562;13.418;2023-05-07T06:59:50;6.90;;;6.40;;
22826;SDS011;11580;52.562;13.418;2023-05-07T07:02:20;7.13;;;6.17;;
22826;SDS011;11580;52.562;13.418;2023-05-07T07:04:48;6.67;;;6.17;;
22826;SDS011;11580;52.562;13.418;2023-05-07T07:07:16;6.10;;;5.70;;
22826;SDS011;11580;52.562;13.418;2023-05-07T07:09:45;5.80;;;5.40;;
22826;SDS011;11580;52.562;13.418;2023-05-07T07:12:16;6.17;;;5.67;;
22826;SDS011;11580;52.562;13.418;2023-05-07T07:14:43;6.40;;;5.40;;
22826;SDS011;11580;52.562;13.418;2023-05-07T07:17:11;5.50;;;5.10;;
22826;SDS011;11580;52.562;13.418;2023-05-07T07:19:40;6.00;;;5.60;;
22826;SDS011;11580;52.562;13.418;2023-05-07T07:22:08;5.43;;;5.03;;
22826;SDS011;11580;52.562;13.418;2023-05-07T07:24:36;5.40;;;5.10;;
22826;SDS011;11580;52.562;13.418;2023-05-07T07:27:06;5.60;;;5.20;;
22826;SDS011;11580;52.562;13.418;2023-05-07T07:29:34;5.37;;;4.97;;
22826;SDS011;11580;52.562;13.418;2023-05-07T07:32:02;5.83;;;5.23;;
22826;SDS011;11580;52.562;13.418;2023-05-07T07:34:30;5.80;;;5.40;;
22826;SDS011;11580;52.562;13.418;2023-05-07T07:37:00;5.50;;;5.10;;
22826;SDS011;11580;52.562;13.418;2023-05-07T07:39:31;5.27;;;4.87;;
22826;SDS011;11580;52.562;13.418;2023-05-07T07:41:59;4.93;;;4.53;;
22826;SDS011;11580;52.562;13.418;2023-05-07T07:44:29;5.30;;;4.90;;
22826;SDS011;11580;52.562;13.418;2023-05-07T07:47:01;5.20;;;4.80;;
22826;SDS011;11580;52.562;13.418;2023-05-07T07:49:29;5.50;;;4.50;;
22826;SDS011;11580;52.562;13.418;2023-05-07T07:52:02;5.30;;;4.83;;
22826;SDS011;11580;52.562;13.418;2023-05-07T07:54:31;5.53;;;5.13;;
22826;SDS011;11580;52.562;13.418;2023-05-07T07:56:59;5.20;;;4.70;;
22826;SDS011;11580;52.562;13.418;2023-05-07T07:59:29;4.70;;;4.30;;
22826;SDS011;11580;52.562;13.418;2023-05-07T08:01:56;4.90;;;4.40;;
22826;SDS011;11580;52.562;13.418;2023-05-07T08:04:26;5.27;;;4.87;;
22826;SDS011;11580;52.562;13.418;2023-05-07T08:06:55;4.43;;;4.13;;
22826;SDS011;11580;52.562;13.418;2023-05-07T08:09:24;4.40;;;4.07;;
22826;SDS011;11580;52.562;13.418;2023-05-07T08:11:53;4.00;;;3.70;;
22826;SDS011;11580;52.562;13.418;2023-05-07T08:14:21;3.33;;;3.13;;
22826;SDS011;11580;52.562;13.418;2023-05-07T08:16:48;4.50;;;4.20;;
22826;SDS011;11580;52.562;13.418;2023-05-07T08:19:15;5.07;;;4.57;;
22826;SDS011;11580;52.562;13.418;2023-05-07T08:21:44;4.70;;;4.40;;
22826;SDS011;11580;52.562;13.418;2023-05-07T08:24:13;3.77;;;3.47;;
22826;SDS011;11580;52.562;13.418;2023-05-07T08:26:43;5.70;;;3.50;;
22826;SDS011;11580;52.562;13.418;2023-05-07T08:29:11;4.00;;;3.80;;
22826;SDS011;11580;52.562;13.418;2023-05-07T08:31:38;4.00;;;3.70;;
22826;SDS011;11580;52.562;13.418;2023-05-07T08:34:05;4.00;;;3.73;;
22826;SDS011;11580;52.562;13.418;2023-05-07T08:36:36;4.03;;;3.73;;
22826;SDS011;11580;52.562;13.418;2023-05-07T08:39:03;4.40;;;4.17;;
22826;SDS011;11580;52.562;13.418;2023-05-07T08:41:31;3.70;;;3.40;;
22826;SDS011;11580;52.562;13.418;2023-05-07T08:44:00;4.60;;;4.27;;
22826;SDS011;11580;52.562;13.418;2023-05-07T08:46:33;4.37;;;4.00;;
22826;SDS011;11580;52.562;13.418;2023-05-07T08:49:02;4.30;;;4.00;;
22826;SDS011;11580;52.562;13.418;2023-05-07T08:51:29;5.90;;;3.93;;
22826;SDS011;11580;52.562;13.418;2023-05-07T08:53:57;4.00;;;3.70;;
22826;SDS011;11580;52.562;13.418;2023-05-07T08:56:31;3.97;;;3.67;;
22826;SDS011;11580;52.562;13.418;2023-05-07T08:58:58;4.00;;;3.73;;
22826;SDS011;11580;52.562;13.418;2023-05-07T09:01:28;4.20;;;3.80;;
22826;SDS011;11580;52.562;13.418;2023-05-07T09:03:56;3.93;;;3.63;;
22826;SDS011;11580;52.562;13.418;2023-05-07T09:06:27;4.00;;;3.70;;
22826;SDS011;11580;52.562;13.418;2023-05-07T09:08:54;4.17;;;3.87;;
22826;SDS011;11580;52.562;13.418;2023-05-07T09:11:27;4.20;;;3.90;;
22826;SDS011;11580;52.562;13.418;2023-05-07T09:13:58;3.37;;;3.17;;
22826;SDS011;11580;52.562;13.418;2023-05-07T09:16:28;3.93;;;3.70;;
22826;SDS011;11580;52.562;13.418;2023-05-07T09:18:58;3.70;;;3.40;;
22826;SDS011;11580;52.562;13.418;2023-05-07T09:21:26;3.63;;;3.37;;
22826;SDS011;11580;52.562;13.418;2023-05-07T09:23:57;3.80;;;3.50;;
22826;SDS011;11580;52.562;13.418;2023-05-07T09:26:32;3.73;;;3.43;;
22826;SDS011;11580;52.562;13.418;2023-05-07T09:29:00;3.60;;;3.40;;
22826;SDS011;11580;52.562;13.418;2023-05-07T09:31:29;3.53;;;3.33;;
22826;SDS011;11580;52.562;13.418;2023-05-07T09:33:57;3.20;;;3.00;;
22826;SDS011;11580;52.562;13.418;2023-05-07T09:36:27;3.63;;;3.40;;
22826;SDS011;11580;52.562;13.418;2023-05-07T09:38:55;3.80;;;3.50;;
22826;SDS011;11580;52.562;13.418;2023-05-07T09:41:27;3.47;;;3.27;;
22826;SDS011;11580;52.562;13.418;2023-05-07T09:44:09;3.43;;;3.23;;
22826;SDS011;11580;52.562;13.418;2023-05-07T09:46:43;3.00;;;2.70;;
22826;SDS011;11580;52.562;13.418;2023-05-07T09:49:20;3.20;;;2.80;;
22826;SDS011;11580;52.562;13.418;2023-05-07T09:51:56;3.20;;;3.00;;
22826;SDS011;11580;52.562;13.418;2023-05-07T09:54:28;3.07;;;2.77;;
22826;SDS011;11580;52.562;13.418;2023-05-07T09:56:57;3.30;;;3.10;;
22826;SDS011;11580;52.562;13.418;2023-05-07T09:59:28;3.73;;;3.43;;
22826;SDS011;11580;52.562;13.418;2023-05-07T10:02:02;3.00;;;2.80;;
22826;SDS011;11580;52.562;13.418;2023-05-07T10:04:36;3.00;;;2.73;;
22826;SDS011;11580;52.562;13.418;2023-05-07T10:07:06;3.23;;;2.60;;
22826;SDS011;11580;52.562;13.418;2023-05-07T10:09:36;2.67;;;2.57;;
22826;SDS011;11580;52.562;13.418;2023-05-07T10:12:06;2.77;;;2.57;;
22826;SDS011;11580;52.562;13.418;2023-05-07T10:14:35;2.63;;;2.43;;
22826;SDS011;11580;52.562;13.418;2023-05-07T10:17:04;2.87;;;2.67;;
22826;SDS011;11580;52.562;13.418;2023-05-07T10:19:34;2.70;;;2.60;;
22826;SDS011;11580;52.562;13.418;2023-05-07T10:22:05;2.70;;;2.50;;
22826;SDS011;11580;52.562;13.418;2023-05-07T10:24:39;3.97;;;2.80;;
22826;SDS011;11580;52.562;13.418;2023-05-07T10:27:12;2.43;;;2.33;;
22826;SDS011;11580;52.562;13.418;2023-05-07T10:29:49;2.63;;;2.43;;
22826;SDS011;11580;52.562;13.418;2023-05-07T10:32:33;2.47;;;2.30;;
22826;SDS011;11580;52.562;13.418;2023-05-07T10:35:10;2.37;;;2.27;;
22826;SDS011;11580;52.562;13.418;2023-05-07T10:37:46;2.27;;;2.17;;
22826;SDS011;11580;52.562;13.418;2023-05-07T10:40:16;2.20;;;2.10;;
22826;SDS011;11580;52.562;13.418;2023-05-07T10:42:55;2.33;;;2.20;;
22826;SDS011;11580;52.562;13.418;2023-05-07T10:45:26;3.43;;;2.80;;
22826;SDS011;11580;52.562;13.418;2023-05-07T10:48:10;2.10;;;2.00;;
22826;SDS011;11580;52.562;13.418;2023-05-07T10:50:41;2.53;;;2.43;;
22826;SDS011;11580;52.562;13.418;2023-05-07T10:53:22;2.80;;;2.60;;
22826;SDS011;11580;52.562;13.418;2023-05-07T10:56:24;2.60;;;2.40;;
22826;SDS011;11580;52.562;13.418;2023-05-07T11:02:14;2.50;;;2.30;;
22826;SDS011;11580;52.562;13.418;2023-05-07T11:07:53;2.43;;;2.33;;
22826;SDS011;11580;52.562;13.418;2023-05-07T11:10:27;2.20;;;2.10;;
22826;SDS011;11580;52.562;13.418;2023-05-07T11:13:41;2.50;;;2.30;;
22826;SDS011;11580;52.562;13.418;2023-05-07T11:16:18;2.10;;;2.00;;
22826;SDS011;11580;52.562;13.418;2023-05-07T11:18:53;2.43;;;2.23;;
22826;SDS011;11580;52.562;13.418;2023-05-07T11:21:33;2.73;;;2.53;;
22826;SDS011;11580;52.562;13.418;2023-05-07T11:24:41;2.60;;;2.40;;
22826;SDS011;11580;52.562;13.418;2023-05-07T11:27:11;2.77;;;2.57;;
22826;SDS011;11580;52.562;13.418;2023-05-07T11:29:39;2.80;;;2.43;;
22826;SDS011;11580;52.562;13.418;2023-05-07T11:32:13;2.63;;;2.53;;
22826;SDS011;11580;52.562;13.418;2023-05-07T11:34:50;2.40;;;2.20;;
22826;SDS011;11580;52.562;13.418;2023-05-07T11:37:20;2.50;;;2.40;;
22826;SDS011;11580;52.562;13.418;2023-05-07T11:40:01;3.10;;;2.80;;
22826;SDS011;11580;52.562;13.418;2023-05-07T11:42:31;2.60;;;2.40;;
22826;SDS011;11580;52.562;13.418;2023-05-07T11:45:00;2.70;;;2.50;;
22826;SDS011;11580;52.562;13.418;2023-05-07T11:47:29;2.03;;;1.90;;
22826;SDS011;11580;52.562;13.418;2023-05-07T11:49:57;2.60;;;2.40;;
22826;SDS011;11580;52.562;13.418;2023-05-07T11:52:32;2.60;;;2.40;;
22826;SDS011;11580;52.562;13.418;2023-05-07T11:55:00;2.23;;;2.10;;
22826;SDS011;11580;52.562;13.418;2023-05-07T11:57:29;2.67;;;2.47;;
22826;SDS011;11580;52.562;13.418;2023-05-07T11:59:59;2.20;;;2.00;;
22826;SDS011;11580;52.562;13.418;2023-05-07T12:02:37;2.80;;;2.60;;
22826;SDS011;11580;52.562;13.418;2023-05-07T12:05:05;2.23;;;2.13;;
22826;SDS011;11580;52.562;13.418;2023-05-07T12:07:34;2.63;;;2.43;;
22826;SDS011;11580;52.562;13.418;2023-05-07T12:10:04;2.20;;;2.10;;
22826;SDS011;11580;52.562;13.418;2023-05-07T12:12:37;2.53;;;2.33;;
22826;SDS011;11580;52.562;13.418;2023-05-07T12:15:05;2.73;;;2.53;;
22826;SDS011;11580;52.562;13.418;2023-05-07T12:17:34;3.43;;;2.53;;
22826;SDS011;11580;52.562;13.418;2023-05-07T12:20:02;2.03;;;1.93;;
22826;SDS011;11580;52.562;13.418;2023-05-07T12:22:31;3.10;;;2.30;;
22826;SDS011;11580;52.562;13.418;2023-05-07T12:25:00;2.20;;;2.03;;
22826;SDS011;11580;52.562;13.418;2023-05-07T12:27:27;2.10;;;1.90;;
22826;SDS011;11580;52.562;13.418;2023-05-07T12:29:56;2.40;;;2.20;;
22826;SDS011;11580;52.562;13.418;2023-05-07T12:32:24;2.10;;;2.00;;
22826;SDS011;11580;52.562;13.418;2023-05-07T12:34:52;2.07;;;1.97;;
22826;SDS011;11580;52.562;13.418;2023-05-07T12:37:22;2.07;;;1.97;;
22826;SDS011;11580;52.562;13.418;2023-05-07T12:40:04;1.93;;;1.83;;
22826;SDS011;11580;52.562;13.418;2023-05-07T12:42:32;2.80;;;2.40;;
22826;SDS011;11580;52.562;13.418;2023-05-07T12:45:07;1.73;;;1.63;;
22826;SDS011;11580;52.562;13.418;2023-05-07T12:47:35;2.43;;;2.33;;
22826;SDS011;11580;52.562;13.418;2023-05-07T12:50:04;1.90;;;1.80;;
22826;SDS011;11580;52.562;13.418;2023-05-07T12:52:33;2.37;;;1.87;;
22826;SDS011;11580;52.562;13.418;2023-05-07T12:55:05;2.60;;;2.40;;
22826;SDS011;11580;52.562;13.418;2023-05-07T12:57:37;2.10;;;2.00;;
22826;SDS011;11580;52.562;13.418;2023-05-07T13:00:06;2.03;;;1.90;;
22826;SDS011;11580;52.562;13.418;2023-05-07T13:02:37;2.03;;;1.93;;
22826;SDS011;11580;52.562;13.418;2023-05-07T13:05:06;2.37;;;1.90;;
22826;SDS011;11580;52.562;13.418;2023-05-07T13:07:34;2.00;;;1.90;;
22826;SDS011;11580;52.562;13.418;2023-05-07T13:10:02;2.70;;;1.90;;
22826;SDS011;11580;52.562;13.418;2023-05-07T13:12:31;1.77;;;1.67;;
22826;SDS011;11580;52.562;13.418;2023-05-07T13:14:58;2.00;;;1.90;;
22826;SDS011;11580;52.562;13.418;2023-05-07T13:17:26;2.10;;;1.90;;
22826;SDS011;11580;52.562;13.418;2023-05-07T13:19:53;2.20;;;2.10;;
22826;SDS011;11580;52.562;13.418;2023-05-07T13:22:20;1.93;;;1.83;;
22826;SDS011;11580;52.562;13.418;2023-05-07T13:24:47;2.70;;;2.17;;
22826;SDS011;11580;52.562;13.418;2023-05-07T13:27:15;2.70;;;2.20;;
22826;SDS011;11580;52.562;13.418;2023-05-07T13:29:45;2.30;;;2.20;;
22826;SDS011;11580;52.562;13.418;2023-05-07T13:32:12;2.30;;;1.70;;
22826;SDS011;11580;52.562;13.418;2023-05-07T13:34:40;1.93;;;1.83;;
22826;SDS011;11580;52.562;13.418;2023-05-07T13:37:07;2.27;;;2.07;;
22826;SDS011;11580;52.562;13.418;2023-05-07T13:39:34;2.17;;;2.07;;
22826;SDS011;11580;52.562;13.418;2023-05-07T13:42:01;5.73;;;2.13;;
22826;SDS011;11580;52.562;13.418;2023-05-07T13:44:28;2.07;;;1.97;;
22826;SDS011;11580;52.562;13.418;2023-05-07T13:46:57;2.43;;;2.23;;
22826;SDS011;11580;52.562;13.418;2023-05-07T13:49:25;1.93;;;1.83;;
22826;SDS011;11580;52.562;13.418;2023-05-07T13:51:52;1.70;;;1.60;;
22826;SDS011;11580;52.562;13.418;2023-05-07T13:54:20;2.13;;;1.90;;
22826;SDS011;11580;52.562;13.418;2023-05-07T13:56:47;2.70;;;1.90;;
22826;SDS011;11580;52.562;13.418;2023-05-07T13:59:15;2.23;;;2.03;;
22826;SDS011;11580;52.562;13.418;2023-05-07T14:01:43;2.30;;;2.20;;
22826;SDS011;11580;52.562;13.418;2023-05-07T14:04:11;2.27;;;2.10;;
22826;SDS011;11580;52.562;13.418;2023-05-07T14:06:38;2.57;;;2.20;;
22826;SDS011;11580;52.562;13.418;2023-05-07T14:09:05;2.50;;;2.40;;
22826;SDS011;11580;52.562;13.418;2023-05-07T14:11:33;2.30;;;2.00;;
22826;SDS011;11580;52.562;13.418;2023-05-07T14:14:00;2.07;;;1.97;;
22826;SDS011;11580;52.562;13.418;2023-05-07T14:16:27;2.50;;;2.30;;
22826;SDS011;11580;52.562;13.418;2023-05-07T14:18:54;2.87;;;2.50;;
22826;SDS011;11580;52.562;13.418;2023-05-07T14:21:23;2.30;;;2.20;;
22826;SDS011;11580;52.562;13.418;2023-05-07T14:23:50;2.67;;;2.40;;
22826;SDS011;11580;52.562;13.418;2023-05-07T14:26:17;2.00;;;1.83;;
22826;SDS011;11580;52.562;13.418;2023-05-07T14:28:45;2.40;;;2.20;;
22826;SDS011;11580;52.562;13.418;2023-05-07T14:31:13;2.73;;;2.30;;
22826;SDS011;11580;52.562;13.418;2023-05-07T14:33:40;2.77;;;2.30;;
22826;SDS011;11580;52.562;13.418;2023-05-07T14:36:07;2.20;;;2.10;;
22826;SDS011;11580;52.562;13.418;2023-05-07T14:38:36;3.40;;;2.10;;
22826;SDS011;11580;52.562;13.418;2023-05-07T14:41:03;2.90;;;2.40;;
22826;SDS011;11580;52.562;13.418;2023-05-07T14:43:30;2.63;;;2.43;;
22826;SDS011;11580;52.562;13.418;2023-05-07T14:45:57;2.30;;;2.10;;
22826;SDS011;11580;52.562;13.418;2023-05-07T14:48:24;2.37;;;2.17;;
22826;SDS011;11580;52.562;13.418;2023-05-07T14:50:52;1.90;;;1.80;;